createdAt,value
2023-02-09T00:01:14.623Z,88.17
2023-02-09T00:03:42.067Z,81.47
2023-02-09T00:06:09.654Z,79.93
2023-02-09T00:08:36.870Z,85.87
2023-02-09T00:11:15.619Z,88.07
2023-02-09T00:13:43.612Z,88.77
2023-02-09T00:16:10.810Z,84.17
2023-02-09T00:18:37.634Z,82.63
2023-02-09T00:21:08.682Z,91.67
2023-02-09T00:23:37.348Z,89.57
2023-02-09T00:26:09.006Z,85.03
2023-02-09T00:28:36.446Z,85.77
2023-02-09T00:31:07.506Z,81.07
2023-02-09T00:33:34.797Z,82.43
2023-02-09T00:36:03.362Z,79.30
2023-02-09T00:38:30.115Z,79.63
2023-02-09T00:40:57.168Z,88.37
2023-02-09T00:43:23.895Z,85.37
2023-02-09T00:45:52.485Z,89.23
2023-02-09T00:48:21.890Z,94.70
2023-02-09T00:50:50.115Z,92.97
2023-02-09T00:53:16.932Z,91.40
2023-02-09T00:55:43.882Z,92.27
2023-02-09T00:58:10.637Z,91.53
2023-02-09T01:00:37.672Z,88.47
2023-02-09T01:03:05.168Z,94.93
2023-02-09T01:05:31.996Z,93.70
2023-02-09T01:07:58.888Z,90.73
2023-02-09T01:10:25.751Z,87.73
2023-02-09T01:12:52.536Z,94.97
2023-02-09T01:15:19.434Z,90.80
2023-02-09T01:17:46.264Z,91.10
2023-02-09T01:20:13.545Z,102.80
2023-02-09T01:22:40.418Z,93.77
2023-02-09T01:25:07.790Z,91.57
2023-02-09T01:27:35.943Z,97.83
2023-02-09T01:30:02.841Z,96.57
2023-02-09T01:32:29.705Z,99.90
2023-02-09T01:34:56.601Z,106.03
2023-02-09T01:37:25.481Z,95.53
2023-02-09T01:39:52.281Z,101.37
2023-02-09T01:42:20.373Z,95.67
2023-02-09T01:44:47.464Z,99.87
2023-02-09T01:47:15.110Z,103.93
2023-02-09T01:49:42.654Z,98.33
2023-02-09T01:52:12.283Z,98.50
2023-02-09T01:54:48.166Z,102.40
2023-02-09T01:57:20.389Z,100.23
2023-02-09T01:59:51.264Z,99.70
2023-02-09T02:02:18.429Z,104.00
2023-02-09T02:04:48.445Z,105.83
2023-02-09T02:07:38.658Z,105.87
2023-02-09T02:10:06.118Z,99.37
2023-02-09T02:12:33.111Z,97.23
2023-02-09T02:15:00.084Z,99.87
2023-02-09T02:17:45.701Z,101.03
2023-02-09T02:20:12.719Z,107.73
2023-02-09T02:22:58.228Z,96.03
2023-02-09T02:25:44.100Z,102.53
2023-02-09T02:28:17.136Z,92.43
2023-02-09T02:31:04.207Z,96.17
2023-02-09T02:33:40.302Z,95.57
2023-02-09T02:36:25.717Z,100.22
2023-02-09T02:38:57.187Z,95.80
2023-02-09T02:41:51.193Z,100.27
2023-02-09T02:44:18.926Z,100.57
2023-02-09T02:46:47.547Z,98.13
2023-02-09T02:49:33.978Z,103.20
2023-02-09T02:52:03.161Z,92.23
2023-02-09T02:54:32.751Z,92.93
2023-02-09T02:57:03.551Z,102.23
2023-02-09T02:59:33.083Z,105.60
2023-02-09T03:02:03.849Z,104.03
2023-02-09T03:04:31.481Z,102.23
2023-02-09T03:06:58.301Z,91.50
2023-02-09T03:09:25.096Z,94.50
2023-02-09T03:11:53.484Z,99.30
2023-02-09T03:14:41.519Z,95.30
2023-02-09T03:17:24.989Z,86.20
2023-02-09T03:19:56.130Z,104.30
2023-02-09T03:22:26.004Z,93.43
2023-02-09T03:24:57.113Z,96.43
2023-02-09T03:27:36.266Z,96.63
2023-02-09T03:30:04.791Z,84.33
2023-02-09T03:32:31.801Z,88.27
2023-02-09T03:34:59.638Z,92.87
2023-02-09T03:37:26.688Z,108.23
2023-02-09T03:39:53.441Z,94.07
2023-02-09T03:42:20.724Z,88.70
2023-02-09T03:44:47.577Z,92.30
2023-02-09T03:47:14.490Z,89.93
2023-02-09T03:49:42.016Z,94.83
2023-02-09T03:52:10.292Z,88.53
2023-02-09T03:54:37.418Z,108.57
2023-02-09T03:57:04.461Z,82.87
2023-02-09T03:59:35.519Z,99.77
2023-02-09T04:02:03.017Z,92.93
2023-02-09T04:04:29.861Z,107.17
2023-02-09T04:06:56.709Z,96.43
2023-02-09T04:09:23.927Z,85.13
2023-02-09T04:11:51.050Z,96.17
2023-02-09T04:14:18.335Z,89.83
2023-02-09T04:16:45.207Z,102.03
2023-02-09T04:19:12.579Z,87.33
2023-02-09T04:21:39.940Z,99.17
2023-02-09T04:24:07.926Z,88.20
2023-02-09T04:26:35.345Z,91.87
2023-02-09T04:29:02.158Z,89.00
2023-02-09T04:31:29.276Z,94.13
2023-02-09T04:33:56.203Z,90.53
2023-02-09T04:36:23.623Z,88.90
2023-02-09T04:38:50.829Z,94.80
2023-02-09T04:41:17.848Z,94.97
2023-02-09T04:43:45.937Z,88.07
2023-02-09T04:46:13.591Z,97.60
2023-02-09T04:48:40.730Z,97.47
2023-02-09T04:51:07.946Z,99.07
2023-02-09T04:53:34.886Z,99.70
2023-02-09T04:56:01.684Z,102.60
2023-02-09T04:58:47.047Z,90.93
2023-02-09T05:01:17.284Z,107.13
2023-02-09T05:03:44.282Z,93.83
2023-02-09T05:06:11.417Z,76.57
2023-02-09T05:08:38.255Z,90.67
2023-02-09T05:11:05.187Z,94.57
2023-02-09T05:13:32.034Z,88.47
2023-02-09T05:15:58.884Z,90.20
2023-02-09T05:18:25.686Z,101.93
2023-02-09T05:20:52.694Z,75.70
2023-02-09T05:23:19.661Z,78.03
2023-02-09T05:25:47.512Z,80.20
2023-02-09T05:28:14.492Z,97.73
2023-02-09T05:30:42.044Z,83.60
2023-02-09T05:33:08.903Z,89.33
2023-02-09T05:35:35.858Z,92.40
2023-02-09T05:38:02.664Z,90.20
2023-02-09T05:40:29.580Z,96.37
2023-02-09T05:42:57.660Z,103.77
2023-02-09T05:45:24.523Z,102.33
2023-02-09T05:47:51.377Z,89.93
2023-02-09T05:50:18.220Z,89.57
2023-02-09T05:52:45.425Z,87.50
2023-02-09T05:55:12.257Z,75.53
2023-02-09T05:57:39.432Z,98.73
2023-02-09T06:00:06.514Z,93.00
2023-02-09T06:02:38.824Z,74.20
2023-02-09T06:05:05.858Z,84.67
2023-02-09T06:07:32.606Z,64.87
2023-02-09T06:09:59.413Z,78.50
2023-02-09T06:12:26.349Z,68.30
2023-02-09T06:14:53.188Z,67.63
2023-02-09T06:17:19.937Z,65.07
2023-02-09T06:19:46.879Z,59.97
2023-02-09T06:22:13.774Z,61.70
2023-02-09T06:24:40.519Z,57.47
2023-02-09T06:27:07.444Z,65.87
2023-02-09T06:29:34.296Z,60.77
2023-02-09T06:32:01.353Z,62.10
2023-02-09T06:34:28.198Z,54.07
2023-02-09T06:36:55.088Z,59.57
2023-02-09T06:39:21.898Z,48.10
2023-02-09T06:41:48.820Z,54.40
2023-02-09T06:44:15.744Z,50.23
2023-02-09T06:46:42.764Z,53.33
2023-02-09T06:49:09.588Z,49.03
2023-02-09T06:51:36.750Z,49.00
2023-02-09T06:54:03.988Z,43.50
2023-02-09T06:56:30.752Z,43.60
2023-02-09T06:58:57.595Z,52.47
2023-02-09T07:01:24.466Z,47.63
2023-02-09T07:03:51.357Z,51.93
2023-02-09T07:06:19.170Z,43.03
2023-02-09T07:08:46.521Z,47.73
2023-02-09T07:11:14.568Z,44.40
2023-02-09T07:13:41.434Z,44.33
2023-02-09T07:16:09.898Z,46.27
2023-02-09T07:18:37.442Z,41.63
2023-02-09T07:21:05.795Z,48.97
2023-02-09T07:23:32.688Z,42.07
2023-02-09T07:26:06.663Z,45.33
2023-02-09T07:28:35.204Z,40.43
2023-02-09T07:31:03.972Z,41.13
2023-02-09T07:33:30.936Z,36.30
2023-02-09T07:35:57.833Z,35.10
2023-02-09T07:38:24.842Z,33.83
2023-02-09T07:40:51.941Z,24.47
2023-02-09T07:43:18.733Z,28.13
2023-02-09T07:45:46.444Z,34.90
2023-02-09T07:48:13.460Z,30.43
2023-02-09T07:50:40.773Z,26.20
2023-02-09T07:53:07.630Z,25.47
2023-02-09T07:55:34.440Z,27.87
2023-02-09T07:58:01.276Z,29.20
2023-02-09T08:00:28.092Z,16.50
2023-02-09T08:02:55.005Z,27.60
2023-02-09T08:05:26.855Z,23.27
2023-02-09T08:07:53.839Z,27.70
2023-02-09T08:10:20.774Z,22.33
2023-02-09T08:13:00.376Z,25.87
2023-02-09T08:15:29.446Z,24.53
2023-02-09T08:17:58.188Z,25.63
2023-02-09T08:20:26.516Z,21.30
2023-02-09T08:22:54.778Z,26.13
2023-02-09T08:25:23.054Z,22.30
2023-02-09T08:27:50.383Z,25.60
2023-02-09T08:30:17.835Z,21.50
2023-02-09T08:32:44.744Z,23.80
2023-02-09T08:35:11.544Z,26.90
2023-02-09T08:37:38.440Z,15.93
2023-02-09T08:40:05.427Z,27.13
2023-02-09T08:42:32.337Z,24.27
2023-02-09T08:44:59.215Z,18.00
2023-02-09T08:47:26.088Z,21.10
2023-02-09T08:49:52.829Z,22.80
2023-02-09T08:52:20.076Z,23.33
2023-02-09T08:54:47.040Z,11.40
2023-02-09T08:57:13.811Z,25.43
2023-02-09T08:59:40.915Z,25.53
2023-02-09T09:02:07.805Z,15.40
2023-02-09T09:04:34.663Z,22.90
2023-02-09T09:07:01.490Z,9.83
2023-02-09T09:09:28.349Z,16.60
2023-02-09T09:11:55.278Z,30.70
2023-02-09T09:14:22.060Z,24.93
2023-02-09T09:16:48.951Z,22.30
2023-02-09T09:19:15.769Z,29.93
2023-02-09T09:21:42.595Z,15.37
2023-02-09T09:24:09.449Z,19.67
2023-02-09T09:26:36.323Z,24.53
2023-02-09T09:29:03.551Z,16.63
2023-02-09T09:31:34.059Z,16.23
2023-02-09T09:34:00.918Z,12.03
2023-02-09T09:36:27.843Z,20.07
2023-02-09T09:39:03.717Z,22.60
2023-02-09T09:41:38.212Z,16.33
2023-02-09T09:44:12.702Z,24.77
2023-02-09T09:46:42.001Z,17.40
2023-02-09T09:49:19.015Z,24.50
2023-02-09T09:51:52.067Z,15.67
2023-02-09T09:54:23.981Z,11.47
2023-02-09T09:56:52.439Z,20.07
2023-02-09T09:59:24.155Z,20.47
2023-02-09T10:01:52.221Z,20.00
2023-02-09T10:04:21.114Z,18.73
2023-02-09T10:06:51.398Z,24.73
2023-02-09T10:09:36.680Z,11.13
2023-02-09T10:12:06.213Z,25.67
2023-02-09T10:14:33.208Z,19.17
2023-02-09T10:17:00.224Z,17.57
2023-02-09T10:19:27.718Z,23.00
2023-02-09T10:21:55.000Z,17.53
2023-02-09T10:24:29.869Z,12.30
2023-02-09T10:27:02.936Z,17.27
2023-02-09T10:29:29.790Z,14.00
2023-02-09T10:32:03.001Z,20.97
2023-02-09T10:34:39.159Z,27.57
2023-02-09T10:37:21.231Z,13.33
2023-02-09T10:39:54.145Z,28.10
2023-02-09T10:42:31.817Z,17.50
2023-02-09T10:45:05.142Z,19.73
2023-02-09T10:47:32.032Z,20.73
2023-02-09T10:50:11.051Z,26.43
2023-02-09T10:52:39.370Z,18.43
2023-02-09T10:55:17.683Z,14.23
2023-02-09T10:57:44.564Z,22.30
2023-02-09T11:00:17.254Z,23.03
2023-02-09T11:02:51.911Z,19.97
2023-02-09T11:05:21.865Z,19.73
2023-02-09T11:07:58.024Z,17.47
2023-02-09T11:10:26.162Z,15.23
2023-02-09T11:12:53.061Z,13.63
2023-02-09T11:15:24.181Z,15.10
2023-02-09T11:17:53.648Z,15.70
2023-02-09T11:20:30.998Z,25.37
2023-02-09T11:23:04.772Z,19.47
2023-02-09T11:25:37.776Z,21.20
2023-02-09T11:28:23.416Z,10.53
2023-02-09T11:30:59.561Z,21.17
2023-02-09T11:33:38.445Z,16.80
2023-02-09T11:36:08.091Z,19.33
2023-02-09T11:38:55.796Z,16.10
2023-02-09T11:41:46.831Z,28.63
2023-02-09T11:44:18.125Z,24.57
2023-02-09T11:46:45.952Z,24.10
2023-02-09T11:49:18.073Z,22.40
2023-02-09T11:51:46.301Z,18.17
2023-02-09T11:54:16.372Z,17.23
2023-02-09T11:56:46.592Z,21.07
2023-02-09T11:59:31.972Z,25.20
2023-02-09T12:02:08.436Z,21.97
2023-02-09T12:04:41.422Z,16.50
2023-02-09T12:07:14.557Z,12.27
2023-02-09T12:09:44.813Z,20.83
2023-02-09T12:12:17.670Z,23.27
2023-02-09T12:15:03.304Z,20.57
2023-02-09T12:17:33.192Z,19.13
2023-02-09T12:20:01.460Z,24.87
2023-02-09T12:22:34.073Z,21.90
2023-02-09T12:25:18.003Z,23.83
2023-02-09T12:28:05.037Z,21.90
2023-02-09T12:30:40.787Z,22.33
2023-02-09T12:33:19.577Z,21.13
2023-02-09T12:36:24.875Z,24.00
2023-02-09T12:39:04.002Z,21.30
2023-02-09T12:41:34.208Z,20.43
2023-02-09T12:44:10.281Z,19.73
2023-02-09T12:46:53.174Z,22.20
2023-02-09T12:49:21.732Z,22.63
2023-02-09T12:51:52.083Z,16.27
2023-02-09T12:54:37.874Z,13.80
2023-02-09T12:57:16.916Z,20.63
2023-02-09T12:59:50.167Z,21.90
2023-02-09T13:02:37.052Z,20.00
2023-02-09T13:05:16.177Z,19.70
2023-02-09T13:07:46.220Z,20.40
2023-02-09T13:10:22.434Z,18.70
2023-02-09T13:12:53.294Z,19.30
2023-02-09T13:15:20.281Z,20.53
2023-02-09T13:18:05.596Z,22.43
2023-02-09T13:20:41.518Z,17.63
2023-02-09T13:23:14.240Z,17.13
2023-02-09T13:25:41.200Z,16.33
2023-02-09T13:28:09.702Z,21.83
2023-02-09T13:30:37.909Z,20.53
2023-02-09T13:33:04.793Z,21.13
2023-02-09T13:35:35.021Z,13.77
2023-02-09T13:38:08.236Z,24.70
2023-02-09T13:40:35.439Z,21.87
2023-02-09T13:43:02.354Z,21.20
2023-02-09T13:45:29.657Z,13.90
2023-02-09T13:47:57.669Z,19.40
2023-02-09T13:50:25.313Z,20.50
2023-02-09T13:52:52.238Z,19.23
2023-02-09T13:55:21.149Z,20.67
2023-02-09T13:58:04.250Z,16.83
2023-02-09T14:00:38.654Z,19.33
2023-02-09T14:03:14.226Z,18.70
2023-02-09T14:05:41.135Z,21.17
2023-02-09T14:08:08.782Z,23.23
2023-02-09T14:10:36.305Z,16.67
2023-02-09T14:13:12.223Z,39.17
2023-02-09T14:15:59.671Z,35.63
2023-02-09T14:18:26.539Z,22.77
2023-02-09T14:21:19.705Z,17.97
2023-02-09T14:24:04.168Z,16.50
2023-02-09T14:26:35.711Z,13.03
2023-02-09T14:29:02.483Z,19.63
2023-02-09T14:31:29.333Z,19.40
2023-02-09T14:33:57.109Z,5.97
2023-02-09T14:36:25.608Z,15.77
2023-02-09T14:38:52.857Z,16.80
2023-02-09T14:41:19.706Z,14.80
2023-02-09T14:43:56.361Z,17.33
2023-02-09T14:46:23.332Z,18.93
2023-02-09T14:48:50.121Z,9.80
2023-02-09T14:51:17.719Z,17.63
2023-02-09T14:53:44.537Z,10.33
2023-02-09T14:56:20.173Z,18.07
2023-02-09T14:58:47.095Z,19.20
2023-02-09T15:01:15.230Z,21.83
2023-02-09T15:03:42.133Z,17.80
2023-02-09T15:06:11.431Z,17.47
2023-02-09T15:08:39.373Z,20.03
2023-02-09T15:11:27.321Z,17.27
2023-02-09T15:13:57.728Z,23.40
2023-02-09T15:16:24.663Z,20.20
2023-02-09T15:18:51.549Z,18.27
2023-02-09T15:21:18.432Z,20.80
2023-02-09T15:23:45.278Z,18.97
2023-02-09T15:26:15.611Z,21.00
2023-02-09T15:28:42.692Z,22.40
2023-02-09T15:31:13.346Z,19.80
2023-02-09T15:33:41.294Z,14.57
2023-02-09T15:36:08.622Z,17.70
2023-02-09T15:38:36.371Z,23.07
2023-02-09T15:41:22.026Z,19.30
2023-02-09T15:44:07.458Z,24.80
2023-02-09T15:46:53.567Z,19.47
2023-02-09T15:49:20.509Z,18.13
2023-02-09T15:51:47.326Z,21.07
2023-02-09T15:54:17.550Z,21.20
2023-02-09T15:56:45.317Z,26.07
2023-02-09T15:59:23.080Z,19.60
2023-02-09T16:01:51.593Z,24.73
2023-02-09T16:04:18.744Z,23.80
2023-02-09T16:06:53.293Z,14.53
2023-02-09T16:09:24.139Z,29.00
2023-02-09T16:11:51.827Z,17.83
2023-02-09T16:14:23.803Z,26.60
2023-02-09T16:16:51.461Z,20.70
2023-02-09T16:19:19.224Z,19.80
2023-02-09T16:21:51.001Z,25.50
2023-02-09T16:24:30.602Z,23.03
2023-02-09T16:27:02.225Z,27.47
2023-02-09T16:29:29.226Z,22.13
2023-02-09T16:31:56.442Z,19.17
2023-02-09T16:34:23.317Z,22.47
2023-02-09T16:36:50.406Z,24.57
2023-02-09T16:39:18.819Z,22.03
2023-02-09T16:41:50.756Z,26.13
2023-02-09T16:44:22.382Z,19.53
2023-02-09T16:46:51.261Z,24.37
2023-02-09T16:49:36.113Z,25.73
2023-02-09T16:52:05.217Z,22.17
2023-02-09T16:54:36.855Z,22.83
2023-02-09T16:57:05.078Z,24.67
2023-02-09T16:59:32.370Z,25.13
2023-02-09T17:02:00.081Z,24.17
2023-02-09T17:04:27.334Z,24.53
2023-02-09T17:06:54.156Z,26.10
2023-02-09T17:09:21.026Z,23.10
2023-02-09T17:11:47.901Z,28.73
2023-02-09T17:14:14.861Z,22.97
2023-02-09T17:16:44.994Z,26.47
2023-02-09T17:19:16.740Z,28.50
2023-02-09T17:21:43.751Z,25.53
2023-02-09T17:24:14.793Z,27.53
2023-02-09T17:26:41.843Z,29.17
2023-02-09T17:29:09.037Z,26.60
2023-02-09T17:31:51.987Z,24.00
2023-02-09T17:34:20.803Z,29.30
2023-02-09T17:36:47.694Z,29.20
2023-02-09T17:39:17.005Z,25.37
2023-02-09T17:41:44.964Z,26.27
2023-02-09T17:47:03.961Z,29.00
2023-02-09T17:49:30.772Z,26.90
2023-02-09T17:51:57.614Z,27.67
2023-02-09T17:54:24.569Z,27.27
2023-02-09T17:56:51.360Z,23.63
2023-02-09T17:59:20.433Z,17.83
2023-02-09T18:01:50.520Z,25.30
2023-02-09T18:04:22.098Z,24.40
2023-02-09T18:06:49.391Z,16.50
2023-02-09T18:09:16.772Z,28.97
2023-02-09T18:11:46.717Z,24.67
2023-02-09T18:14:22.460Z,31.30
2023-02-09T18:16:49.508Z,28.23
2023-02-09T18:19:17.680Z,27.33
2023-02-09T18:22:02.847Z,24.83
2023-02-09T18:24:31.409Z,23.73
2023-02-09T18:26:59.214Z,17.43
2023-02-09T18:29:29.644Z,17.43
2023-02-09T18:31:57.828Z,30.67
2023-02-09T18:34:24.649Z,19.13
2023-02-09T18:36:51.526Z,29.20
2023-02-09T18:39:19.362Z,27.57
2023-02-09T18:41:49.069Z,24.77
2023-02-09T18:44:16.303Z,18.37
2023-02-09T18:46:43.988Z,23.40
2023-02-09T18:49:13.426Z,19.03
2023-02-09T18:51:42.060Z,15.83
2023-02-09T18:54:09.396Z,24.37
2023-02-09T18:56:37.008Z,27.40
2023-02-09T18:59:04.397Z,17.40
2023-02-09T19:01:31.660Z,20.57
2023-02-09T19:03:59.630Z,20.77
2023-02-09T19:06:26.910Z,12.30
2023-02-09T19:08:54.174Z,26.13
2023-02-09T19:11:22.939Z,17.03
2023-02-09T19:14:08.803Z,21.13
2023-02-09T19:16:36.918Z,28.00
2023-02-09T19:19:04.480Z,26.33
2023-02-09T19:21:32.788Z,22.50
2023-02-09T19:24:00.516Z,28.87
2023-02-09T19:26:27.610Z,24.53
2023-02-09T19:28:57.009Z,24.60
2023-02-09T19:31:25.419Z,19.13
2023-02-09T19:33:56.976Z,16.07
2023-02-09T19:36:25.452Z,29.97
2023-02-09T19:38:52.777Z,25.17
2023-02-09T19:41:21.141Z,28.40
2023-02-09T19:43:48.912Z,25.93
2023-02-09T19:46:15.783Z,25.03
2023-02-09T19:48:42.838Z,27.30
2023-02-09T19:51:09.902Z,29.03
2023-02-09T19:53:37.591Z,31.50
2023-02-09T19:56:05.622Z,10.53
2023-02-09T19:58:33.335Z,29.57
2023-02-09T20:01:02.168Z,22.77
2023-02-09T20:03:31.024Z,22.93
2023-02-09T20:05:58.398Z,33.23
2023-02-09T20:08:25.130Z,28.03
2023-02-09T20:10:51.968Z,30.93
2023-02-09T20:13:19.115Z,17.83
2023-02-09T20:15:47.321Z,30.63
2023-02-09T20:18:17.091Z,33.03
2023-02-09T20:20:44.888Z,32.97
2023-02-09T20:23:12.822Z,34.27
2023-02-09T20:25:43.429Z,32.70
2023-02-09T20:28:13.657Z,35.33
2023-02-09T20:30:41.806Z,31.83
2023-02-09T20:33:10.717Z,31.33
2023-02-09T20:35:42.160Z,32.27
2023-02-09T20:38:11.715Z,30.87
2023-02-09T20:40:41.946Z,32.80
2023-02-09T20:43:29.620Z,33.87
2023-02-09T20:46:15.971Z,32.77
2023-02-09T20:48:43.935Z,33.93
2023-02-09T20:51:11.136Z,35.93
2023-02-09T20:53:37.941Z,31.80
2023-02-09T20:56:05.587Z,32.23
2023-02-09T20:58:32.886Z,31.47
2023-02-09T21:00:59.979Z,32.53
2023-02-09T21:03:27.003Z,31.13
2023-02-09T21:05:53.734Z,33.70
2023-02-09T21:08:21.441Z,32.10
2023-02-09T21:10:54.904Z,33.50
2023-02-09T21:13:22.015Z,32.87
2023-02-09T21:15:48.929Z,32.23
2023-02-09T21:18:18.413Z,33.27
2023-02-09T21:20:45.861Z,33.37
2023-02-09T21:23:12.754Z,30.43
2023-02-09T21:25:39.752Z,37.27
2023-02-09T21:28:06.968Z,32.63
2023-02-09T21:30:33.913Z,34.23
2023-02-09T21:33:01.306Z,33.80
2023-02-09T21:35:28.440Z,53.03
2023-02-09T21:37:55.447Z,37.17
2023-02-09T21:40:23.405Z,34.80
2023-02-09T21:42:51.043Z,33.87
2023-02-09T21:45:18.077Z,33.17
2023-02-09T21:47:44.994Z,32.00
2023-02-09T21:50:12.264Z,41.50
2023-02-09T21:52:39.229Z,33.50
2023-02-09T21:55:06.469Z,32.77
2023-02-09T21:57:33.254Z,33.37
2023-02-09T22:00:04.812Z,38.70
2023-02-09T22:02:31.917Z,28.90
2023-02-09T22:04:58.648Z,35.70
2023-02-09T22:07:25.536Z,35.77
2023-02-09T22:09:52.507Z,36.07
2023-02-09T22:12:19.474Z,32.47
2023-02-09T22:14:46.618Z,35.50
2023-02-09T22:17:13.497Z,34.80
2023-02-09T22:19:40.347Z,33.33
2023-02-09T22:22:07.362Z,37.07
2023-02-09T22:24:35.044Z,35.37
2023-02-09T22:27:05.293Z,34.20
2023-02-09T22:29:33.530Z,31.33
2023-02-09T22:32:00.466Z,32.57
2023-02-09T22:34:27.248Z,31.13
2023-02-09T22:36:54.415Z,31.67
2023-02-09T22:39:21.744Z,31.67
2023-02-09T22:41:48.749Z,33.63
2023-02-09T22:44:16.414Z,36.83
2023-02-09T22:46:44.771Z,37.90
2023-02-09T22:49:21.013Z,32.17
2023-02-09T22:51:49.034Z,33.57
2023-02-09T22:54:16.958Z,31.13
2023-02-09T22:56:43.968Z,33.83
2023-02-09T22:59:12.464Z,33.77
2023-02-09T23:01:39.341Z,34.73
2023-02-09T23:04:06.451Z,34.00
2023-02-09T23:06:33.370Z,35.03
2023-02-09T23:09:02.886Z,31.77
2023-02-09T23:11:30.368Z,29.97
2023-02-09T23:14:13.435Z,32.77
2023-02-09T23:16:41.163Z,33.50
2023-02-09T23:19:09.027Z,34.43
2023-02-09T23:21:37.661Z,32.00
2023-02-09T23:24:04.821Z,31.60
2023-02-09T23:26:31.819Z,30.67
2023-02-09T23:29:00.303Z,32.90
2023-02-09T23:31:28.191Z,33.63
2023-02-09T23:33:56.317Z,33.40
2023-02-09T23:36:27.855Z,28.67
2023-02-09T23:38:57.090Z,32.37
2023-02-09T23:41:25.134Z,31.13
2023-02-09T23:43:53.017Z,26.77
2023-02-09T23:46:21.377Z,28.30
2023-02-09T23:48:48.734Z,28.97
2023-02-09T23:51:19.021Z,30.83
2023-02-09T23:53:47.713Z,33.07
2023-02-09T23:56:16.690Z,34.63
2023-02-09T23:58:45.395Z,29.73
